Terminal Aerodrome Forecast
Issued by NWS

Home | Current Version | Previous Version | Text Only | Print | Product List | Glossary On
Versions: 1 2 3 4 5 6 7 8 9 10 11 12 13 14 15 16
000
FTUS43 KAPX 191858 AAA
TAFAPN
TAF AMD
KAPN 191858Z 1919/2018 11008KT P6SM SCT020 BKN250
      TEMPO 1919/1922 BKN020
     FM200100 09004KT P6SM BKN015
     FM200600 VRB03KT 4SM BR OVC020
     FM200900 VRB03KT 1SM BR OVC008
     FM201400 14004KT P6SM BKN020
     FM201600 14006KT P6SM SCT035=

USA.gov is the U.S. government's official web portal to all federal, state and local government web resources and services.